Ana Sayfa
METAR-TAF:

METAR-TAF

Havaalanları :

Gobabis, Namibya

Enlem: 22-30-20S, Boylam: 18-58-30E, yükseklik: 1468 m

Güncel hava durumu gözlemi

Rapor saat 07:00 UTC de 29 dakika önce yapıldı.
Rüzgar kuzeydan 1 kt
Sıcaklık 21°C
Nem 12%
Basınç 1025 hPa

METAR: FYGB 150700Z AUTO 01001KT //// // ////// 21/M09 Q1025

Saat: 09:29 (07:29 UTC)


TAF: eksik

4.000'den fazla havaalanı için hava durumu gözlemleri ve tahminleri (METAR ve TAF raporları).

Kullanılabilir istasyonlar harita üzerinde sarı ve kırmızı noktalarla gösterilir.

İstasyonun adını görmek için fareyi noktanın üzerinde gezdirin.

Sonrasında hava gözlem ve tahminlerini görmek için tıklayın.

Haritayı değiştirmek için: yaklaştırmak için siyah artı işaretli yeşil düğmeye ve uzaklaştırmak için de eksi işaretli düğmeye hızla tıklayın; bitişik haritalar için yeşil okları kullanın.


METAR-TAF: